Longwood, Missouri
Current Conditions -  °F | °C
As of 2:53 AM on Saturday 22 Nov 2014 (Local Time) from KDMO Reporting Station
Overcast Overcast  
Wind Chill: 52°   Ceiling: 1600
Heat Index: 52°   Visibility: 10mi
Dew Point: 47°   Wind: 13mph
Humidity: 83%   Direction: 190°S
Pressure: 30.08"   Gusts: NA
Location:  38.8574°N, 93.2065°W
Report Text: KDMO 220853Z AUTO 19011KT 10SM OVC016 11/08 A3008 RMK AO2 RAE0756 SLP188 P0000 60000 T01110083 56008
Loading
Personal Weather Stations






























Interactive Weather Map New forecast layout! Learn more

10-Day Weather Forecast

Advertisements
Track Severe Weather on mobile